sensor_id;sensor_type;location;lat;lon;timestamp;P1;durP1;ratioP1;P2;durP2;ratioP2
4278;SDS011;2153;47.744;10.580;2024-03-06T00:00:10;14.07;;;4.20;;
4278;SDS011;2153;47.744;10.580;2024-03-06T00:02:38;12.37;;;3.70;;
4278;SDS011;2153;47.744;10.580;2024-03-06T00:05:07;13.10;;;3.93;;
4278;SDS011;2153;47.744;10.580;2024-03-06T00:07:34;13.53;;;4.20;;
4278;SDS011;2153;47.744;10.580;2024-03-06T00:10:01;15.10;;;4.70;;
4278;SDS011;2153;47.744;10.580;2024-03-06T00:12:30;12.40;;;3.87;;
4278;SDS011;2153;47.744;10.580;2024-03-06T00:14:57;13.37;;;4.63;;
4278;SDS011;2153;47.744;10.580;2024-03-06T00:17:24;12.60;;;4.25;;
4278;SDS011;2153;47.744;10.580;2024-03-06T00:19:51;13.23;;;4.00;;
4278;SDS011;2153;47.744;10.580;2024-03-06T00:22:19;12.60;;;3.70;;
4278;SDS011;2153;47.744;10.580;2024-03-06T00:24:46;13.07;;;4.60;;
4278;SDS011;2153;47.744;10.580;2024-03-06T00:27:13;14.05;;;4.05;;
4278;SDS011;2153;47.744;10.580;2024-03-06T00:29:40;14.45;;;4.80;;
4278;SDS011;2153;47.744;10.580;2024-03-06T00:32:07;12.50;;;3.70;;
4278;SDS011;2153;47.744;10.580;2024-03-06T00:37:01;14.67;;;4.37;;
4278;SDS011;2153;47.744;10.580;2024-03-06T00:39:30;14.77;;;5.33;;
4278;SDS011;2153;47.744;10.580;2024-03-06T00:41:57;13.20;;;4.00;;
4278;SDS011;2153;47.744;10.580;2024-03-06T00:44:24;13.83;;;4.63;;
4278;SDS011;2153;47.744;10.580;2024-03-06T00:46:51;13.17;;;4.23;;
4278;SDS011;2153;47.744;10.580;2024-03-06T00:49:18;13.60;;;4.40;;
4278;SDS011;2153;47.744;10.580;2024-03-06T00:51:45;12.87;;;3.93;;
4278;SDS011;2153;47.744;10.580;2024-03-06T00:54:12;13.27;;;4.33;;
4278;SDS011;2153;47.744;10.580;2024-03-06T00:56:40;13.03;;;4.57;;
4278;SDS011;2153;47.744;10.580;2024-03-06T00:59:07;13.20;;;4.17;;
4278;SDS011;2153;47.744;10.580;2024-03-06T01:01:35;12.97;;;4.27;;
4278;SDS011;2153;47.744;10.580;2024-03-06T01:04:02;12.40;;;4.10;;
4278;SDS011;2153;47.744;10.580;2024-03-06T01:06:29;13.50;;;4.20;;
4278;SDS011;2153;47.744;10.580;2024-03-06T01:08:56;13.80;;;4.43;;
4278;SDS011;2153;47.744;10.580;2024-03-06T01:11:23;12.93;;;3.80;;
4278;SDS011;2153;47.744;10.580;2024-03-06T01:13:52;14.53;;;4.60;;
4278;SDS011;2153;47.744;10.580;2024-03-06T01:16:19;13.00;;;4.10;;
4278;SDS011;2153;47.744;10.580;2024-03-06T01:18:46;13.70;;;4.60;;
4278;SDS011;2153;47.744;10.580;2024-03-06T01:21:13;13.70;;;4.63;;
4278;SDS011;2153;47.744;10.580;2024-03-06T01:23:40;12.83;;;3.80;;
4278;SDS011;2153;47.744;10.580;2024-03-06T01:26:08;13.40;;;4.30;;
4278;SDS011;2153;47.744;10.580;2024-03-06T01:28:35;12.27;;;4.00;;
4278;SDS011;2153;47.744;10.580;2024-03-06T01:31:04;13.30;;;4.23;;
4278;SDS011;2153;47.744;10.580;2024-03-06T01:33:31;13.60;;;4.63;;
4278;SDS011;2153;47.744;10.580;2024-03-06T01:35:58;13.60;;;4.77;;
4278;SDS011;2153;47.744;10.580;2024-03-06T01:38:25;13.10;;;4.40;;
4278;SDS011;2153;47.744;10.580;2024-03-06T01:40:52;14.93;;;4.90;;
4278;SDS011;2153;47.744;10.580;2024-03-06T01:43:20;13.03;;;4.10;;
4278;SDS011;2153;47.744;10.580;2024-03-06T01:45:47;12.20;;;3.83;;
4278;SDS011;2153;47.744;10.580;2024-03-06T01:48:16;13.00;;;4.20;;
4278;SDS011;2153;47.744;10.580;2024-03-06T01:50:44;13.40;;;4.30;;
4278;SDS011;2153;47.744;10.580;2024-03-06T01:53:12;13.27;;;4.10;;
4278;SDS011;2153;47.744;10.580;2024-03-06T01:55:39;13.17;;;4.50;;
4278;SDS011;2153;47.744;10.580;2024-03-06T01:58:06;12.67;;;4.00;;
4278;SDS011;2153;47.744;10.580;2024-03-06T02:00:33;13.30;;;4.23;;
4278;SDS011;2153;47.744;10.580;2024-03-06T02:03:01;13.10;;;4.23;;
4278;SDS011;2153;47.744;10.580;2024-03-06T02:05:29;12.87;;;4.27;;
4278;SDS011;2153;47.744;10.580;2024-03-06T02:07:57;12.80;;;3.93;;
4278;SDS011;2153;47.744;10.580;2024-03-06T02:10:25;16.70;;;4.70;;
4278;SDS011;2153;47.744;10.580;2024-03-06T02:12:52;12.90;;;4.17;;
4278;SDS011;2153;47.744;10.580;2024-03-06T02:15:19;13.93;;;4.83;;
4278;SDS011;2153;47.744;10.580;2024-03-06T02:17:46;13.47;;;4.27;;
4278;SDS011;2153;47.744;10.580;2024-03-06T02:20:13;12.73;;;4.00;;
4278;SDS011;2153;47.744;10.580;2024-03-06T02:22:42;13.70;;;4.60;;
4278;SDS011;2153;47.744;10.580;2024-03-06T02:25:09;13.00;;;4.23;;
4278;SDS011;2153;47.744;10.580;2024-03-06T02:27:36;14.57;;;4.93;;
4278;SDS011;2153;47.744;10.580;2024-03-06T02:30:04;12.80;;;4.40;;
4278;SDS011;2153;47.744;10.580;2024-03-06T02:32:31;14.57;;;4.47;;
4278;SDS011;2153;47.744;10.580;2024-03-06T02:34:58;13.90;;;4.30;;
4278;SDS011;2153;47.744;10.580;2024-03-06T02:37:25;13.40;;;4.87;;
4278;SDS011;2153;47.744;10.580;2024-03-06T02:39:53;13.50;;;4.30;;
4278;SDS011;2153;47.744;10.580;2024-03-06T02:42:20;12.03;;;3.33;;
4278;SDS011;2153;47.744;10.580;2024-03-06T02:44:47;12.70;;;3.67;;
4278;SDS011;2153;47.744;10.580;2024-03-06T02:47:14;12.27;;;3.20;;
4278;SDS011;2153;47.744;10.580;2024-03-06T02:49:41;11.70;;;3.30;;
4278;SDS011;2153;47.744;10.580;2024-03-06T02:52:08;12.27;;;3.40;;
4278;SDS011;2153;47.744;10.580;2024-03-06T02:54:35;11.20;;;2.70;;
4278;SDS011;2153;47.744;10.580;2024-03-06T02:57:03;12.10;;;3.40;;
4278;SDS011;2153;47.744;10.580;2024-03-06T02:59:32;11.47;;;2.97;;
4278;SDS011;2153;47.744;10.580;2024-03-06T03:01:59;13.23;;;3.83;;
4278;SDS011;2153;47.744;10.580;2024-03-06T03:04:28;12.00;;;3.27;;
4278;SDS011;2153;47.744;10.580;2024-03-06T03:06:55;11.80;;;3.03;;
4278;SDS011;2153;47.744;10.580;2024-03-06T03:09:22;12.47;;;3.70;;
4278;SDS011;2153;47.744;10.580;2024-03-06T03:11:49;11.77;;;2.77;;
4278;SDS011;2153;47.744;10.580;2024-03-06T03:14:17;12.23;;;3.33;;
4278;SDS011;2153;47.744;10.580;2024-03-06T03:16:44;12.57;;;3.67;;
4278;SDS011;2153;47.744;10.580;2024-03-06T03:19:11;11.10;;;2.77;;
4278;SDS011;2153;47.744;10.580;2024-03-06T03:21:41;12.47;;;3.67;;
4278;SDS011;2153;47.744;10.580;2024-03-06T03:24:08;12.10;;;3.40;;
4278;SDS011;2153;47.744;10.580;2024-03-06T03:26:35;11.00;;;2.80;;
4278;SDS011;2153;47.744;10.580;2024-03-06T03:29:02;10.40;;;2.50;;
4278;SDS011;2153;47.744;10.580;2024-03-06T03:31:31;12.10;;;3.20;;
4278;SDS011;2153;47.744;10.580;2024-03-06T03:33:58;10.90;;;2.87;;
4278;SDS011;2153;47.744;10.580;2024-03-06T03:36:25;11.73;;;3.13;;
4278;SDS011;2153;47.744;10.580;2024-03-06T03:38:52;11.60;;;3.10;;
4278;SDS011;2153;47.744;10.580;2024-03-06T03:41:19;11.60;;;2.60;;
4278;SDS011;2153;47.744;10.580;2024-03-06T03:43:46;10.50;;;2.40;;
4278;SDS011;2153;47.744;10.580;2024-03-06T03:46:14;11.10;;;2.63;;
4278;SDS011;2153;47.744;10.580;2024-03-06T03:48:43;12.17;;;2.80;;
4278;SDS011;2153;47.744;10.580;2024-03-06T03:51:10;10.50;;;2.07;;
4278;SDS011;2153;47.744;10.580;2024-03-06T03:53:37;10.40;;;2.30;;
4278;SDS011;2153;47.744;10.580;2024-03-06T03:56:04;10.83;;;2.43;;
4278;SDS011;2153;47.744;10.580;2024-03-06T03:58:31;10.30;;;2.17;;
4278;SDS011;2153;47.744;10.580;2024-03-06T04:00:58;10.97;;;2.50;;
4278;SDS011;2153;47.744;10.580;2024-03-06T04:03:25;10.37;;;2.30;;
4278;SDS011;2153;47.744;10.580;2024-03-06T04:05:54;10.67;;;2.27;;
4278;SDS011;2153;47.744;10.580;2024-03-06T04:08:21;10.83;;;2.23;;
4278;SDS011;2153;47.744;10.580;2024-03-06T04:10:48;10.20;;;1.97;;
4278;SDS011;2153;47.744;10.580;2024-03-06T04:13:15;14.83;;;2.40;;
4278;SDS011;2153;47.744;10.580;2024-03-06T04:15:45;10.77;;;2.33;;
4278;SDS011;2153;47.744;10.580;2024-03-06T04:18:12;10.67;;;2.10;;
4278;SDS011;2153;47.744;10.580;2024-03-06T04:20:39;10.90;;;2.40;;
4278;SDS011;2153;47.744;10.580;2024-03-06T04:23:07;9.70;;;1.80;;
4278;SDS011;2153;47.744;10.580;2024-03-06T04:25:34;10.00;;;1.80;;
4278;SDS011;2153;47.744;10.580;2024-03-06T04:28:02;10.23;;;1.87;;
4278;SDS011;2153;47.744;10.580;2024-03-06T04:30:29;9.60;;;1.50;;
4278;SDS011;2153;47.744;10.580;2024-03-06T04:32:56;9.53;;;1.50;;
4278;SDS011;2153;47.744;10.580;2024-03-06T04:35:23;9.60;;;1.27;;
4278;SDS011;2153;47.744;10.580;2024-03-06T04:37:50;10.20;;;1.60;;
4278;SDS011;2153;47.744;10.580;2024-03-06T04:40:18;9.40;;;1.33;;
4278;SDS011;2153;47.744;10.580;2024-03-06T04:42:47;10.17;;;1.80;;
4278;SDS011;2153;47.744;10.580;2024-03-06T04:45:15;9.87;;;1.37;;
4278;SDS011;2153;47.744;10.580;2024-03-06T04:47:42;9.63;;;1.40;;
4278;SDS011;2153;47.744;10.580;2024-03-06T04:50:09;9.67;;;1.50;;
4278;SDS011;2153;47.744;10.580;2024-03-06T04:52:37;9.03;;;1.10;;
4278;SDS011;2153;47.744;10.580;2024-03-06T04:55:04;9.90;;;1.37;;
4278;SDS011;2153;47.744;10.580;2024-03-06T04:57:34;10.67;;;1.30;;
4278;SDS011;2153;47.744;10.580;2024-03-06T05:00:01;9.20;;;1.30;;
4278;SDS011;2153;47.744;10.580;2024-03-06T05:02:30;9.60;;;1.47;;
4278;SDS011;2153;47.744;10.580;2024-03-06T05:04:59;9.50;;;1.40;;
4278;SDS011;2153;47.744;10.580;2024-03-06T05:07:27;9.40;;;1.30;;
4278;SDS011;2153;47.744;10.580;2024-03-06T05:09:54;9.50;;;1.40;;
4278;SDS011;2153;47.744;10.580;2024-03-06T05:12:22;9.50;;;1.37;;
4278;SDS011;2153;47.744;10.580;2024-03-06T05:14:50;9.60;;;1.20;;
4278;SDS011;2153;47.744;10.580;2024-03-06T05:17:17;9.43;;;1.30;;
4278;SDS011;2153;47.744;10.580;2024-03-06T05:19:45;9.50;;;1.40;;
4278;SDS011;2153;47.744;10.580;2024-03-06T05:22:12;9.60;;;1.30;;
4278;SDS011;2153;47.744;10.580;2024-03-06T05:24:40;8.97;;;1.00;;
4278;SDS011;2153;47.744;10.580;2024-03-06T05:27:07;9.00;;;1.10;;
4278;SDS011;2153;47.744;10.580;2024-03-06T05:29:34;9.00;;;1.10;;
4278;SDS011;2153;47.744;10.580;2024-03-06T05:32:03;9.77;;;1.30;;
4278;SDS011;2153;47.744;10.580;2024-03-06T05:34:32;9.93;;;1.47;;
4278;SDS011;2153;47.744;10.580;2024-03-06T05:36:59;9.70;;;1.53;;
4278;SDS011;2153;47.744;10.580;2024-03-06T05:39:26;10.23;;;1.57;;
4278;SDS011;2153;47.744;10.580;2024-03-06T05:41:53;10.97;;;2.23;;
4278;SDS011;2153;47.744;10.580;2024-03-06T05:44:20;10.10;;;1.70;;
4278;SDS011;2153;47.744;10.580;2024-03-06T05:46:47;9.40;;;1.40;;
4278;SDS011;2153;47.744;10.580;2024-03-06T05:49:15;12.17;;;2.57;;
4278;SDS011;2153;47.744;10.580;2024-03-06T05:51:42;11.70;;;2.47;;
4278;SDS011;2153;47.744;10.580;2024-03-06T05:54:10;12.00;;;2.90;;
4278;SDS011;2153;47.744;10.580;2024-03-06T05:56:37;12.70;;;2.33;;
4278;SDS011;2153;47.744;10.580;2024-03-06T05:59:04;9.90;;;1.90;;
4278;SDS011;2153;47.744;10.580;2024-03-06T06:01:33;10.97;;;2.10;;
4278;SDS011;2153;47.744;10.580;2024-03-06T06:04:00;10.90;;;2.33;;
4278;SDS011;2153;47.744;10.580;2024-03-06T06:06:29;10.97;;;2.57;;
4278;SDS011;2153;47.744;10.580;2024-03-06T06:08:56;11.10;;;2.10;;
4278;SDS011;2153;47.744;10.580;2024-03-06T06:11:23;10.27;;;2.07;;
4278;SDS011;2153;47.744;10.580;2024-03-06T06:13:50;11.03;;;2.77;;
4278;SDS011;2153;47.744;10.580;2024-03-06T06:16:17;12.50;;;3.23;;
4278;SDS011;2153;47.744;10.580;2024-03-06T06:18:44;11.40;;;3.17;;
4278;SDS011;2153;47.744;10.580;2024-03-06T06:21:11;11.60;;;2.75;;
4278;SDS011;2153;47.744;10.580;2024-03-06T06:23:39;12.03;;;3.33;;
4278;SDS011;2153;47.744;10.580;2024-03-06T06:26:07;12.70;;;3.30;;
4278;SDS011;2153;47.744;10.580;2024-03-06T06:28:35;13.53;;;4.40;;
4278;SDS011;2153;47.744;10.580;2024-03-06T06:31:02;13.03;;;3.77;;
4278;SDS011;2153;47.744;10.580;2024-03-06T06:33:29;12.70;;;3.50;;
4278;SDS011;2153;47.744;10.580;2024-03-06T06:35:56;11.77;;;3.47;;
4278;SDS011;2153;47.744;10.580;2024-03-06T06:38:23;12.80;;;4.20;;
4278;SDS011;2153;47.744;10.580;2024-03-06T06:40:52;11.90;;;3.23;;
4278;SDS011;2153;47.744;10.580;2024-03-06T06:43:19;12.83;;;3.40;;
4278;SDS011;2153;47.744;10.580;2024-03-06T06:45:46;12.50;;;3.87;;
4278;SDS011;2153;47.744;10.580;2024-03-06T06:48:13;12.77;;;3.90;;
4278;SDS011;2153;47.744;10.580;2024-03-06T06:50:40;11.67;;;3.20;;
4278;SDS011;2153;47.744;10.580;2024-03-06T06:53:07;11.17;;;2.63;;
4278;SDS011;2153;47.744;10.580;2024-03-06T06:55:34;11.07;;;2.83;;
4278;SDS011;2153;47.744;10.580;2024-03-06T06:58:02;12.00;;;2.97;;
4278;SDS011;2153;47.744;10.580;2024-03-06T07:00:30;13.30;;;3.73;;
4278;SDS011;2153;47.744;10.580;2024-03-06T07:02:57;12.23;;;3.23;;
4278;SDS011;2153;47.744;10.580;2024-03-06T07:05:25;11.83;;;3.27;;
4278;SDS011;2153;47.744;10.580;2024-03-06T07:07:52;11.70;;;3.10;;
4278;SDS011;2153;47.744;10.580;2024-03-06T07:10:20;11.07;;;2.97;;
4278;SDS011;2153;47.744;10.580;2024-03-06T07:12:48;11.47;;;2.87;;
4278;SDS011;2153;47.744;10.580;2024-03-06T07:15:17;11.30;;;3.00;;
4278;SDS011;2153;47.744;10.580;2024-03-06T07:17:44;11.27;;;3.00;;
4278;SDS011;2153;47.744;10.580;2024-03-06T07:20:11;10.80;;;2.90;;
4278;SDS011;2153;47.744;10.580;2024-03-06T07:22:39;11.33;;;2.93;;
4278;SDS011;2153;47.744;10.580;2024-03-06T07:25:06;11.23;;;2.93;;
4278;SDS011;2153;47.744;10.580;2024-03-06T07:27:33;11.37;;;3.20;;
4278;SDS011;2153;47.744;10.580;2024-03-06T07:30:01;11.10;;;2.70;;
4278;SDS011;2153;47.744;10.580;2024-03-06T07:32:29;10.70;;;2.53;;
4278;SDS011;2153;47.744;10.580;2024-03-06T07:34:56;11.53;;;2.80;;
4278;SDS011;2153;47.744;10.580;2024-03-06T07:37:24;11.97;;;2.77;;
4278;SDS011;2153;47.744;10.580;2024-03-06T07:39:51;10.90;;;2.40;;
4278;SDS011;2153;47.744;10.580;2024-03-06T07:42:18;12.13;;;2.00;;
4278;SDS011;2153;47.744;10.580;2024-03-06T07:44:46;10.40;;;1.90;;
4278;SDS011;2153;47.744;10.580;2024-03-06T07:47:13;11.90;;;1.60;;
4278;SDS011;2153;47.744;10.580;2024-03-06T07:49:41;9.63;;;1.57;;
4278;SDS011;2153;47.744;10.580;2024-03-06T07:52:09;9.57;;;1.47;;
4278;SDS011;2153;47.744;10.580;2024-03-06T07:54:36;9.33;;;1.30;;
4278;SDS011;2153;47.744;10.580;2024-03-06T07:57:04;9.67;;;1.23;;
4278;SDS011;2153;47.744;10.580;2024-03-06T07:59:31;10.10;;;1.40;;
4278;SDS011;2153;47.744;10.580;2024-03-06T08:01:58;12.17;;;1.50;;
4278;SDS011;2153;47.744;10.580;2024-03-06T08:04:26;9.80;;;1.63;;
4278;SDS011;2153;47.744;10.580;2024-03-06T08:06:54;9.27;;;1.10;;
4278;SDS011;2153;47.744;10.580;2024-03-06T08:09:21;9.93;;;1.37;;
4278;SDS011;2153;47.744;10.580;2024-03-06T08:11:50;10.33;;;1.67;;
4278;SDS011;2153;47.744;10.580;2024-03-06T08:14:19;9.90;;;1.70;;
4278;SDS011;2153;47.744;10.580;2024-03-06T08:16:46;10.40;;;1.80;;
4278;SDS011;2153;47.744;10.580;2024-03-06T08:19:13;10.10;;;1.60;;
4278;SDS011;2153;47.744;10.580;2024-03-06T08:21:40;10.80;;;2.00;;
4278;SDS011;2153;47.744;10.580;2024-03-06T08:24:08;9.40;;;1.40;;
4278;SDS011;2153;47.744;10.580;2024-03-06T08:26:36;9.70;;;1.40;;
4278;SDS011;2153;47.744;10.580;2024-03-06T08:29:03;9.77;;;1.23;;
4278;SDS011;2153;47.744;10.580;2024-03-06T08:31:30;9.20;;;1.47;;
4278;SDS011;2153;47.744;10.580;2024-03-06T08:33:57;9.70;;;1.63;;
4278;SDS011;2153;47.744;10.580;2024-03-06T08:36:24;9.53;;;1.50;;
4278;SDS011;2153;47.744;10.580;2024-03-06T08:38:51;10.47;;;1.60;;
4278;SDS011;2153;47.744;10.580;2024-03-06T08:41:20;9.70;;;1.60;;
4278;SDS011;2153;47.744;10.580;2024-03-06T08:43:47;11.20;;;2.20;;
4278;SDS011;2153;47.744;10.580;2024-03-06T08:46:14;9.70;;;1.50;;
4278;SDS011;2153;47.744;10.580;2024-03-06T08:48:41;9.20;;;1.10;;
4278;SDS011;2153;47.744;10.580;2024-03-06T08:51:07;9.47;;;1.60;;
4278;SDS011;2153;47.744;10.580;2024-03-06T08:53:36;9.60;;;1.70;;
4278;SDS011;2153;47.744;10.580;2024-03-06T08:56:04;9.90;;;1.50;;
4278;SDS011;2153;47.744;10.580;2024-03-06T08:58:32;9.70;;;1.70;;
4278;SDS011;2153;47.744;10.580;2024-03-06T09:00:59;10.00;;;1.73;;
4278;SDS011;2153;47.744;10.580;2024-03-06T09:03:26;11.93;;;2.10;;
4278;SDS011;2153;47.744;10.580;2024-03-06T09:05:53;10.97;;;1.40;;
4278;SDS011;2153;47.744;10.580;2024-03-06T09:08:20;9.57;;;1.40;;
4278;SDS011;2153;47.744;10.580;2024-03-06T09:10:47;9.03;;;1.10;;
4278;SDS011;2153;47.744;10.580;2024-03-06T09:13:14;9.00;;;1.00;;
4278;SDS011;2153;47.744;10.580;2024-03-06T09:15:43;9.10;;;1.00;;
4278;SDS011;2153;47.744;10.580;2024-03-06T09:18:10;8.80;;;0.90;;
4278;SDS011;2153;47.744;10.580;2024-03-06T09:20:37;8.87;;;0.90;;
4278;SDS011;2153;47.744;10.580;2024-03-06T09:23:04;8.87;;;0.90;;
4278;SDS011;2153;47.744;10.580;2024-03-06T09:25:31;8.90;;;1.00;;
4278;SDS011;2153;47.744;10.580;2024-03-06T09:27:58;8.90;;;0.90;;
4278;SDS011;2153;47.744;10.580;2024-03-06T09:30:29;9.03;;;1.00;;
4278;SDS011;2153;47.744;10.580;2024-03-06T09:32:57;8.70;;;0.80;;
4278;SDS011;2153;47.744;10.580;2024-03-06T09:35:24;9.13;;;1.10;;
4278;SDS011;2153;47.744;10.580;2024-03-06T09:37:51;9.07;;;1.10;;
4278;SDS011;2153;47.744;10.580;2024-03-06T09:40:19;8.97;;;1.00;;
4278;SDS011;2153;47.744;10.580;2024-03-06T09:42:47;9.10;;;1.07;;
4278;SDS011;2153;47.744;10.580;2024-03-06T09:45:14;8.93;;;0.90;;
4278;SDS011;2153;47.744;10.580;2024-03-06T09:47:41;8.87;;;0.90;;
4278;SDS011;2153;47.744;10.580;2024-03-06T09:50:10;9.50;;;0.80;;
4278;SDS011;2153;47.744;10.580;2024-03-06T09:52:38;9.00;;;0.93;;
4278;SDS011;2153;47.744;10.580;2024-03-06T09:55:08;8.70;;;0.77;;
4278;SDS011;2153;47.744;10.580;2024-03-06T09:57:35;10.20;;;1.83;;
4278;SDS011;2153;47.744;10.580;2024-03-06T10:00:03;9.60;;;1.53;;
4278;SDS011;2153;47.744;10.580;2024-03-06T10:02:34;9.37;;;1.23;;
4278;SDS011;2153;47.744;10.580;2024-03-06T10:05:03;9.90;;;1.20;;
4278;SDS011;2153;47.744;10.580;2024-03-06T10:07:32;9.50;;;1.00;;
4278;SDS011;2153;47.744;10.580;2024-03-06T10:09:59;8.63;;;0.80;;
4278;SDS011;2153;47.744;10.580;2024-03-06T10:12:27;8.93;;;1.00;;
4278;SDS011;2153;47.744;10.580;2024-03-06T10:14:55;9.40;;;1.20;;
4278;SDS011;2153;47.744;10.580;2024-03-06T10:17:22;8.97;;;0.80;;
4278;SDS011;2153;47.744;10.580;2024-03-06T10:19:51;9.33;;;1.10;;
4278;SDS011;2153;47.744;10.580;2024-03-06T10:22:19;9.23;;;1.00;;
4278;SDS011;2153;47.744;10.580;2024-03-06T10:24:50;14.73;;;2.10;;
4278;SDS011;2153;47.744;10.580;2024-03-06T10:27:22;10.63;;;1.60;;
4278;SDS011;2153;47.744;10.580;2024-03-06T10:30:00;10.50;;;1.80;;
4278;SDS011;2153;47.744;10.580;2024-03-06T10:32:27;9.73;;;1.53;;
4278;SDS011;2153;47.744;10.580;2024-03-06T10:34:56;13.23;;;3.07;;
4278;SDS011;2153;47.744;10.580;2024-03-06T10:37:23;13.47;;;3.10;;
4278;SDS011;2153;47.744;10.580;2024-03-06T10:39:52;9.90;;;1.53;;
4278;SDS011;2153;47.744;10.580;2024-03-06T10:42:22;10.50;;;2.03;;
4278;SDS011;2153;47.744;10.580;2024-03-06T10:44:51;10.00;;;1.60;;
4278;SDS011;2153;47.744;10.580;2024-03-06T10:47:19;9.50;;;1.03;;
4278;SDS011;2153;47.744;10.580;2024-03-06T10:49:46;9.60;;;1.40;;
4278;SDS011;2153;47.744;10.580;2024-03-06T10:52:13;9.53;;;1.20;;
4278;SDS011;2153;47.744;10.580;2024-03-06T10:54:41;9.80;;;1.40;;
4278;SDS011;2153;47.744;10.580;2024-03-06T10:57:12;9.97;;;1.53;;
4278;SDS011;2153;47.744;10.580;2024-03-06T10:59:40;9.23;;;1.10;;
4278;SDS011;2153;47.744;10.580;2024-03-06T11:02:09;10.37;;;1.90;;
4278;SDS011;2153;47.744;10.580;2024-03-06T11:04:37;10.20;;;1.70;;
4278;SDS011;2153;47.744;10.580;2024-03-06T11:07:06;10.10;;;1.57;;
4278;SDS011;2153;47.744;10.580;2024-03-06T11:09:33;9.07;;;1.10;;
4278;SDS011;2153;47.744;10.580;2024-03-06T11:12:00;9.33;;;1.10;;
4278;SDS011;2153;47.744;10.580;2024-03-06T11:14:30;9.50;;;1.00;;
4278;SDS011;2153;47.744;10.580;2024-03-06T11:16:58;9.00;;;0.90;;
4278;SDS011;2153;47.744;10.580;2024-03-06T11:19:26;9.20;;;0.93;;
4278;SDS011;2153;47.744;10.580;2024-03-06T11:21:53;9.30;;;0.97;;
4278;SDS011;2153;47.744;10.580;2024-03-06T11:24:20;9.70;;;1.50;;
4278;SDS011;2153;47.744;10.580;2024-03-06T11:26:48;9.70;;;1.50;;
4278;SDS011;2153;47.744;10.580;2024-03-06T11:29:15;9.07;;;0.77;;
4278;SDS011;2153;47.744;10.580;2024-03-06T11:31:57;9.20;;;1.10;;
4278;SDS011;2153;47.744;10.580;2024-03-06T11:34:25;10.40;;;1.17;;
4278;SDS011;2153;47.744;10.580;2024-03-06T11:36:53;9.63;;;1.03;;
4278;SDS011;2153;47.744;10.580;2024-03-06T11:39:20;9.30;;;0.90;;
4278;SDS011;2153;47.744;10.580;2024-03-06T11:41:48;9.07;;;0.77;;
4278;SDS011;2153;47.744;10.580;2024-03-06T11:44:15;9.40;;;0.80;;
4278;SDS011;2153;47.744;10.580;2024-03-06T11:46:42;8.97;;;0.80;;
4278;SDS011;2153;47.744;10.580;2024-03-06T11:49:15;9.03;;;0.80;;
4278;SDS011;2153;47.744;10.580;2024-03-06T11:51:45;9.40;;;0.87;;
4278;SDS011;2153;47.744;10.580;2024-03-06T11:54:13;8.93;;;0.70;;
4278;SDS011;2153;47.744;10.580;2024-03-06T11:56:40;9.20;;;0.90;;
4278;SDS011;2153;47.744;10.580;2024-03-06T11:59:07;8.80;;;0.70;;
4278;SDS011;2153;47.744;10.580;2024-03-06T12:01:35;8.87;;;0.60;;
4278;SDS011;2153;47.744;10.580;2024-03-06T12:04:02;9.13;;;0.80;;
4278;SDS011;2153;47.744;10.580;2024-03-06T12:06:31;9.00;;;0.80;;
4278;SDS011;2153;47.744;10.580;2024-03-06T12:08:59;9.17;;;0.90;;
4278;SDS011;2153;47.744;10.580;2024-03-06T12:11:26;8.80;;;0.70;;
4278;SDS011;2153;47.744;10.580;2024-03-06T12:13:53;8.97;;;0.70;;
4278;SDS011;2153;47.744;10.580;2024-03-06T12:16:20;9.20;;;0.90;;
4278;SDS011;2153;47.744;10.580;2024-03-06T12:18:53;8.80;;;0.70;;
4278;SDS011;2153;47.744;10.580;2024-03-06T12:21:22;8.87;;;0.70;;
4278;SDS011;2153;47.744;10.580;2024-03-06T12:23:50;8.93;;;0.70;;
4278;SDS011;2153;47.744;10.580;2024-03-06T12:26:17;8.97;;;0.70;;
4278;SDS011;2153;47.744;10.580;2024-03-06T12:28:49;8.73;;;0.60;;
4278;SDS011;2153;47.744;10.580;2024-03-06T12:31:16;9.10;;;0.70;;
4278;SDS011;2153;47.744;10.580;2024-03-06T12:33:43;9.40;;;0.80;;
4278;SDS011;2153;47.744;10.580;2024-03-06T12:36:10;9.20;;;0.80;;
4278;SDS011;2153;47.744;10.580;2024-03-06T12:38:37;9.60;;;0.80;;
4278;SDS011;2153;47.744;10.580;2024-03-06T12:41:06;9.20;;;0.80;;
4278;SDS011;2153;47.744;10.580;2024-03-06T12:43:33;8.90;;;0.63;;
4278;SDS011;2153;47.744;10.580;2024-03-06T12:46:00;8.90;;;0.80;;
4278;SDS011;2153;47.744;10.580;2024-03-06T12:48:27;8.83;;;0.60;;
4278;SDS011;2153;47.744;10.580;2024-03-06T12:50:55;9.03;;;0.70;;
4278;SDS011;2153;47.744;10.580;2024-03-06T12:53:29;8.80;;;0.60;;
4278;SDS011;2153;47.744;10.580;2024-03-06T12:55:56;9.03;;;0.60;;
4278;SDS011;2153;47.744;10.580;2024-03-06T12:58:25;8.80;;;0.70;;
4278;SDS011;2153;47.744;10.580;2024-03-06T13:00:52;9.13;;;0.70;;
4278;SDS011;2153;47.744;10.580;2024-03-06T13:03:20;8.90;;;0.70;;
4278;SDS011;2153;47.744;10.580;2024-03-06T13:05:47;8.97;;;0.70;;
4278;SDS011;2153;47.744;10.580;2024-03-06T13:08:14;10.20;;;1.23;;
4278;SDS011;2153;47.744;10.580;2024-03-06T13:10:42;11.40;;;1.47;;
4278;SDS011;2153;47.744;10.580;2024-03-06T13:13:10;10.50;;;1.10;;
4278;SDS011;2153;47.744;10.580;2024-03-06T13:15:38;10.60;;;1.43;;
4278;SDS011;2153;47.744;10.580;2024-03-06T13:18:05;10.70;;;1.80;;
4278;SDS011;2153;47.744;10.580;2024-03-06T13:20:33;13.40;;;2.07;;
4278;SDS011;2153;47.744;10.580;2024-03-06T13:23:00;15.57;;;3.10;;
4278;SDS011;2153;47.744;10.580;2024-03-06T13:25:27;15.40;;;3.40;;
4278;SDS011;2153;47.744;10.580;2024-03-06T13:27:56;19.03;;;2.90;;
4278;SDS011;2153;47.744;10.580;2024-03-06T13:30:24;14.50;;;2.17;;
4278;SDS011;2153;47.744;10.580;2024-03-06T13:32:52;9.90;;;1.40;;
4278;SDS011;2153;47.744;10.580;2024-03-06T13:35:20;10.37;;;1.80;;
4278;SDS011;2153;47.744;10.580;2024-03-06T13:37:47;10.60;;;1.23;;
4278;SDS011;2153;47.744;10.580;2024-03-06T13:40:15;9.30;;;1.10;;
4278;SDS011;2153;47.744;10.580;2024-03-06T13:42:42;9.30;;;0.97;;
4278;SDS011;2153;47.744;10.580;2024-03-06T13:45:09;9.00;;;0.77;;
4278;SDS011;2153;47.744;10.580;2024-03-06T13:47:37;10.23;;;0.70;;
4278;SDS011;2153;47.744;10.580;2024-03-06T13:50:07;8.77;;;0.63;;
4278;SDS011;2153;47.744;10.580;2024-03-06T13:52:34;8.93;;;0.80;;
4278;SDS011;2153;47.744;10.580;2024-03-06T13:55:02;9.20;;;0.90;;
4278;SDS011;2153;47.744;10.580;2024-03-06T13:57:30;9.00;;;0.90;;
4278;SDS011;2153;47.744;10.580;2024-03-06T13:59:58;9.00;;;0.80;;
4278;SDS011;2153;47.744;10.580;2024-03-06T14:02:25;8.87;;;0.70;;
4278;SDS011;2153;47.744;10.580;2024-03-06T14:04:52;8.83;;;0.70;;
4278;SDS011;2153;47.744;10.580;2024-03-06T14:07:20;8.97;;;0.90;;
4278;SDS011;2153;47.744;10.580;2024-03-06T14:09:48;9.40;;;1.03;;
4278;SDS011;2153;47.744;10.580;2024-03-06T14:12:15;10.17;;;1.00;;
4278;SDS011;2153;47.744;10.580;2024-03-06T14:14:42;15.13;;;1.37;;
4278;SDS011;2153;47.744;10.580;2024-03-06T14:17:10;13.80;;;1.67;;
4278;SDS011;2153;47.744;10.580;2024-03-06T14:19:37;9.30;;;1.00;;
4278;SDS011;2153;47.744;10.580;2024-03-06T14:22:04;9.20;;;1.10;;
4278;SDS011;2153;47.744;10.580;2024-03-06T14:24:33;9.37;;;1.10;;
4278;SDS011;2153;47.744;10.580;2024-03-06T14:27:00;9.97;;;1.30;;
4278;SDS011;2153;47.744;10.580;2024-03-06T14:29:27;9.03;;;0.90;;
4278;SDS011;2153;47.744;10.580;2024-03-06T14:31:54;8.97;;;0.90;;
4278;SDS011;2153;47.744;10.580;2024-03-06T14:34:21;11.40;;;1.00;;
4278;SDS011;2153;47.744;10.580;2024-03-06T14:36:49;9.10;;;0.90;;
4278;SDS011;2153;47.744;10.580;2024-03-06T14:39:16;13.30;;;2.60;;
4278;SDS011;2153;47.744;10.580;2024-03-06T14:41:44;13.67;;;3.07;;
4278;SDS011;2153;47.744;10.580;2024-03-06T14:44:12;14.60;;;3.60;;
4278;SDS011;2153;47.744;10.580;2024-03-06T14:46:39;11.50;;;2.33;;
4278;SDS011;2153;47.744;10.580;2024-03-06T14:49:07;11.70;;;2.53;;
4278;SDS011;2153;47.744;10.580;2024-03-06T14:51:34;11.17;;;2.40;;
4278;SDS011;2153;47.744;10.580;2024-03-06T14:54:01;9.80;;;1.40;;
4278;SDS011;2153;47.744;10.580;2024-03-06T14:56:28;10.33;;;1.30;;